createdAt,value
2018-04-24T00:04:28.037Z,10.10
2018-04-24T00:09:31.643Z,11.27
2018-04-24T00:14:34.824Z,10.37
2018-04-24T00:19:37.673Z,9.47
2018-04-24T00:24:40.509Z,11.57
2018-04-24T00:29:44.361Z,6.73
2018-04-24T00:34:47.178Z,12.07
2018-04-24T00:39:50.499Z,8.43
2018-04-24T00:44:54.012Z,10.83
2018-04-24T00:49:56.807Z,10.93
2018-04-24T00:54:59.759Z,10.63
2018-04-24T01:00:03.501Z,8.30
2018-04-24T01:05:06.577Z,10.03
2018-04-24T01:10:09.774Z,7.90
2018-04-24T01:15:12.578Z,11.13
2018-04-24T01:20:16.582Z,11.13
2018-04-24T01:25:19.641Z,10.70
2018-04-24T01:30:22.519Z,10.20
2018-04-24T01:35:25.329Z,8.13
2018-04-24T01:40:29.547Z,10.50
2018-04-24T01:45:32.695Z,11.40
2018-04-24T01:50:35.464Z,12.20
2018-04-24T01:55:38.291Z,11.17
2018-04-24T02:00:42.482Z,10.80
2018-04-24T02:05:46.036Z,13.80
2018-04-24T02:10:48.981Z,7.87
2018-04-24T02:15:52.262Z,7.07
2018-04-24T02:20:55.225Z,8.40
2018-04-24T02:25:58.033Z,12.07
2018-04-24T02:31:01.265Z,11.07
2018-04-24T02:36:04.276Z,15.73
2018-04-24T02:41:07.445Z,18.63
2018-04-24T02:46:11.293Z,15.77
2018-04-24T02:51:15.052Z,21.03
2018-04-24T02:56:18.425Z,18.67
2018-04-24T03:01:21.765Z,18.87
2018-04-24T03:06:25.681Z,16.80
2018-04-24T03:11:28.571Z,21.43
2018-04-24T03:16:31.606Z,20.70
2018-04-24T03:21:34.399Z,21.10
2018-04-24T03:26:38.287Z,21.97
2018-04-24T03:31:41.599Z,19.77
2018-04-24T03:36:44.449Z,21.80
2018-04-24T03:41:47.956Z,22.20
2018-04-24T03:46:51.990Z,20.77
2018-04-24T03:51:54.951Z,22.40
2018-04-24T03:56:58.128Z,22.83
2018-04-24T04:02:01.439Z,18.50
2018-04-24T04:07:04.970Z,23.57
2018-04-24T04:12:08.601Z,20.20
2018-04-24T04:17:21.361Z,24.07
2018-04-24T04:24:35.795Z,21.73
2018-04-24T04:29:38.592Z,20.10
2018-04-24T04:34:41.410Z,25.23
2018-04-24T04:39:44.820Z,24.40
2018-04-24T04:44:47.688Z,25.37
2018-04-24T04:49:51.078Z,29.00
2018-04-24T04:54:54.601Z,24.93
2018-04-24T04:59:57.545Z,23.87
2018-04-24T05:05:01.383Z,19.27
2018-04-24T05:10:04.423Z,28.87
2018-04-24T05:15:07.209Z,29.40
2018-04-24T05:20:10.613Z,30.97
2018-04-24T05:25:13.728Z,20.77
2018-04-24T05:30:19.891Z,29.30
2018-04-24T05:35:23.362Z,21.30
2018-04-24T05:40:26.119Z,22.83
2018-04-24T05:45:28.868Z,23.00
2018-04-24T05:50:31.810Z,28.77
2018-04-24T05:55:34.888Z,32.10
2018-04-24T06:00:37.703Z,34.93
2018-04-24T06:05:40.844Z,31.40
2018-04-24T06:10:43.619Z,27.10
2018-04-24T06:15:46.504Z,29.03
2018-04-24T06:20:49.463Z,31.40
2018-04-24T06:25:52.520Z,27.70
2018-04-24T06:30:55.324Z,32.43
2018-04-24T06:35:58.134Z,39.53
2018-04-24T06:41:00.938Z,38.03
2018-04-24T06:46:03.768Z,35.87
2018-04-24T06:51:07.215Z,28.67
2018-04-24T06:56:10.286Z,33.50
2018-04-24T07:01:13.128Z,32.23
2018-04-24T07:06:16.139Z,26.30
2018-04-24T07:11:18.928Z,22.63
2018-04-24T07:16:21.745Z,23.93
2018-04-24T07:21:24.960Z,23.30
2018-04-24T07:26:28.002Z,22.23
2018-04-24T07:31:30.752Z,18.40
2018-04-24T07:36:33.647Z,18.53
2018-04-24T07:41:36.412Z,22.30
2018-04-24T07:46:39.497Z,17.10
2018-04-24T07:51:42.480Z,18.80
2018-04-24T07:56:49.148Z,18.03
2018-04-24T08:01:52.581Z,18.50
2018-04-24T08:06:55.696Z,18.90
2018-04-24T08:11:58.479Z,20.23
2018-04-24T08:17:01.616Z,21.13
2018-04-24T08:22:04.540Z,18.20
2018-04-24T08:27:07.355Z,15.83
2018-04-24T08:32:10.247Z,17.90
2018-04-24T08:37:13.046Z,16.33
2018-04-24T08:42:15.839Z,15.37
2018-04-24T08:47:18.936Z,16.60
2018-04-24T08:52:21.964Z,12.17
2018-04-24T08:57:25.186Z,15.40
2018-04-24T09:02:27.959Z,12.77
2018-04-24T09:07:30.788Z,12.00
2018-04-24T09:12:33.575Z,9.07
2018-04-24T09:17:36.673Z,8.87
2018-04-24T09:22:39.591Z,9.83
2018-04-24T09:27:42.380Z,10.60
2018-04-24T09:32:45.207Z,9.13
2018-04-24T09:37:48.051Z,8.43
2018-04-24T09:42:50.872Z,8.07
2018-04-24T09:47:53.995Z,6.30
2018-04-24T09:52:57.084Z,8.37
2018-04-24T09:58:00.069Z,6.10
2018-04-24T10:03:02.894Z,5.43
2018-04-24T10:08:05.868Z,6.80
2018-04-24T10:13:09.081Z,5.47
2018-04-24T10:18:13.520Z,5.33
2018-04-24T10:23:16.534Z,5.70
2018-04-24T10:28:19.360Z,6.30
2018-04-24T10:33:22.164Z,8.47
2018-04-24T10:38:25.277Z,6.87
2018-04-24T10:43:28.060Z,5.07
2018-04-24T10:48:30.862Z,5.97
2018-04-24T10:53:34.042Z,6.47
2018-04-24T10:58:36.884Z,7.90
2018-04-24T11:03:39.699Z,5.90
2018-04-24T11:08:43.239Z,6.97
2018-04-24T11:13:46.610Z,5.87
2018-04-24T11:18:49.398Z,5.83
2018-04-24T11:23:52.477Z,6.87
2018-04-24T11:28:59.407Z,7.00
2018-04-24T11:34:02.929Z,6.63
2018-04-24T11:39:06.442Z,5.90
2018-04-24T11:44:09.440Z,6.80
2018-04-24T11:49:12.292Z,5.30
2018-04-24T11:54:15.258Z,6.77
2018-04-24T11:59:18.100Z,6.33
2018-04-24T12:04:25.292Z,7.13
2018-04-24T12:09:29.227Z,4.80
2018-04-24T12:14:32.557Z,6.40
2018-04-24T12:19:35.459Z,4.73
2018-04-24T12:24:38.714Z,4.80
2018-04-24T12:29:41.549Z,4.90
2018-04-24T12:34:44.407Z,5.20
2018-04-24T12:39:47.459Z,5.10
2018-04-24T12:44:50.609Z,5.23
2018-04-24T12:49:53.489Z,6.17
2018-04-24T12:54:56.558Z,5.33
2018-04-24T12:59:59.433Z,5.90
2018-04-24T13:05:02.257Z,6.40
2018-04-24T13:10:05.160Z,4.83
2018-04-24T13:15:08.254Z,5.77
2018-04-24T13:20:11.203Z,4.70
2018-04-24T13:25:14.239Z,5.90
2018-04-24T13:30:17.103Z,6.00
2018-04-24T13:35:19.982Z,5.20
2018-04-24T13:40:23.145Z,5.90
2018-04-24T13:45:26.362Z,6.73
2018-04-24T13:50:29.425Z,6.23
2018-04-24T13:55:32.674Z,6.17
2018-04-24T14:00:35.544Z,6.23
2018-04-24T14:05:38.544Z,5.67
2018-04-24T14:10:41.607Z,5.90
2018-04-24T14:15:44.571Z,7.90
2018-04-24T14:20:47.765Z,5.10
2018-04-24T14:25:51.062Z,8.00
2018-04-24T14:30:54.034Z,5.27
2018-04-24T14:35:57.023Z,6.07
2018-04-24T14:41:00.029Z,6.00
2018-04-24T14:46:03.001Z,6.43
2018-04-24T14:51:09.611Z,5.97
2018-04-24T14:56:13.469Z,5.30
2018-04-24T15:01:16.504Z,4.93
2018-04-24T15:06:19.667Z,5.70
2018-04-24T15:11:22.766Z,7.20
2018-04-24T15:16:25.799Z,5.60
2018-04-24T15:21:29.103Z,5.97
2018-04-24T15:26:32.237Z,6.80
2018-04-24T15:31:35.310Z,7.33
2018-04-24T15:36:38.304Z,5.73
2018-04-24T15:41:41.383Z,5.57
2018-04-24T15:46:44.423Z,4.63
2018-04-24T15:51:48.017Z,7.30
2018-04-24T15:56:51.345Z,4.87
2018-04-24T16:01:55.411Z,7.23
2018-04-24T16:06:59.148Z,6.63
2018-04-24T16:12:04.144Z,7.20
2018-04-24T16:17:07.487Z,7.47
2018-04-24T16:22:11.984Z,7.30
2018-04-24T16:27:15.740Z,6.80
2018-04-24T16:32:22.525Z,6.50
2018-04-24T16:37:26.393Z,5.73
2018-04-24T16:42:30.144Z,6.83
2018-04-24T16:47:33.526Z,6.90
2018-04-24T16:52:36.983Z,6.63
2018-04-24T16:57:41.985Z,5.70
2018-04-24T17:02:50.829Z,6.53
2018-04-24T17:07:54.528Z,6.03
2018-04-24T17:12:58.758Z,5.47
2018-04-24T17:18:02.550Z,6.07
2018-04-24T17:23:07.577Z,6.10
2018-04-24T17:28:11.356Z,6.37
2018-04-24T17:33:15.337Z,6.20
2018-04-24T17:38:20.420Z,7.40
2018-04-24T17:43:24.578Z,6.30
2018-04-24T17:48:29.939Z,5.27
2018-04-24T17:53:33.886Z,7.73
2018-04-24T17:59:51.604Z,6.50
2018-04-24T18:04:56.569Z,9.07
2018-04-24T18:15:35.459Z,7.10
2018-04-24T18:20:39.587Z,5.60
2018-04-24T18:25:47.848Z,6.93
2018-04-24T18:30:54.063Z,5.67
2018-04-24T18:35:58.892Z,5.23
2018-04-24T18:41:05.235Z,6.60
2018-04-24T18:46:11.805Z,5.70
2018-04-24T18:51:16.653Z,6.80
2018-04-24T18:56:21.535Z,5.93
2018-04-24T19:01:30.390Z,6.93
2018-04-24T19:06:48.412Z,7.07
2018-04-24T19:11:53.822Z,7.77
2018-04-24T19:16:59.152Z,8.60
2018-04-24T19:22:05.548Z,6.90
2018-04-24T19:27:10.007Z,7.07
2018-04-24T19:32:44.679Z,5.63
2018-04-24T19:37:48.336Z,7.27
2018-04-24T19:42:52.502Z,10.63
2018-04-24T19:47:56.313Z,8.40
2018-04-24T19:53:00.415Z,9.23
2018-04-24T19:58:04.578Z,9.83
2018-04-24T20:03:08.865Z,8.20
2018-04-24T20:08:13.124Z,9.77
2018-04-24T20:13:18.946Z,8.23
2018-04-24T20:18:23.952Z,6.93
2018-04-24T20:23:27.434Z,8.30
2018-04-24T20:28:31.330Z,9.17
2018-04-24T20:33:35.211Z,10.70
2018-04-24T20:38:38.602Z,9.70
2018-04-24T20:43:42.157Z,11.27
2018-04-24T20:48:47.137Z,10.03
2018-04-24T20:53:50.517Z,8.40
2018-04-24T20:58:53.723Z,8.23
2018-04-24T21:03:56.944Z,7.60
2018-04-24T21:09:00.441Z,6.20
2018-04-24T21:14:04.607Z,7.33
2018-04-24T21:19:08.962Z,7.73
2018-04-24T21:24:12.122Z,7.87
2018-04-24T21:29:15.456Z,8.60
2018-04-24T21:34:18.846Z,9.53
2018-04-24T21:39:22.155Z,6.73
2018-04-24T21:44:25.521Z,5.30
2018-04-24T21:49:28.989Z,6.37
2018-04-24T21:54:32.127Z,6.40
2018-04-24T21:59:35.105Z,5.30
2018-04-24T22:04:38.528Z,4.83
2018-04-24T22:09:41.703Z,5.77
2018-04-24T22:14:45.578Z,4.73
2018-04-24T22:19:49.088Z,5.03
2018-04-24T22:24:52.093Z,4.47
2018-04-24T22:29:55.785Z,5.93
2018-04-24T22:34:59.342Z,4.10
2018-04-24T22:40:02.142Z,5.00
2018-04-24T22:45:06.963Z,4.90
2018-04-24T22:50:10.351Z,4.10
2018-04-24T22:55:13.800Z,3.23
2018-04-24T23:00:18.240Z,3.70
2018-04-24T23:05:22.340Z,2.90
2018-04-24T23:10:36.403Z,3.80
2018-04-24T23:15:50.812Z,2.83
2018-04-24T23:20:52.941Z,2.63
2018-04-24T23:25:57.388Z,2.80
2018-04-24T23:31:00.443Z,3.47
2018-04-24T23:36:03.692Z,2.70
2018-04-24T23:41:06.700Z,4.70
2018-04-24T23:46:10.390Z,3.23
2018-04-24T23:51:13.308Z,3.03
2018-04-24T23:56:17.432Z,3.13
